Kings Canyon Natl Park (north), California
Current Conditions -  °F | °C
As of 7:55 AM on Saturday 25 Oct 2014 (Local Time) from KMMH Reporting Station
Clear Clear  
Wind Chill: 54°   Ceiling: Unl
Heat Index: 54°   Visibility: 10mi
Dew Point: 10°   Wind: 16mph
Humidity: 18%   Direction: 210°SSW
Pressure: 30.12"   Gusts: 29mph
Location:  37.22°N, 119.25°W
Report Text: KMMH 251455Z AUTO 21014G25KT 190V250 10SM CLR 12/M12 A3012 RMK AO1
Loading
Personal Weather Stations






























Interactive Weather Map
Tropical Storm Tracking
New forecast layout! Learn more

10-Day Weather Forecast

Advertisements
Track Severe Weather on mobile